createdAt,value
2018-10-07T00:01:57.734Z,72.10
2018-10-07T00:06:01.108Z,75.80
2018-10-07T00:10:04.499Z,72.50
2018-10-07T00:14:07.882Z,73.30
2018-10-07T00:18:11.275Z,73.10
2018-10-07T00:22:14.715Z,72.90
2018-10-07T00:26:18.096Z,73.80
2018-10-07T00:30:21.482Z,72.60
2018-10-07T00:34:24.853Z,73.30
2018-10-07T00:38:28.232Z,73.60
2018-10-07T00:42:31.600Z,73.80
2018-10-07T00:46:35.387Z,73.50
2018-10-07T00:50:38.766Z,72.80
2018-10-07T00:54:42.138Z,74.50
2018-10-07T00:58:45.523Z,73.50
2018-10-07T01:02:49.173Z,75.00
2018-10-07T01:06:52.560Z,75.70
2018-10-07T01:10:55.924Z,74.60
2018-10-07T01:14:59.316Z,77.30
2018-10-07T01:19:02.702Z,76.00
2018-10-07T01:23:06.617Z,77.40
2018-10-07T01:27:09.990Z,76.20
2018-10-07T01:31:13.400Z,76.70
2018-10-07T01:35:16.813Z,77.90
2018-10-07T01:39:20.217Z,79.70
2018-10-07T01:43:23.599Z,81.60
2018-10-07T01:47:26.972Z,79.50
2018-10-07T01:51:30.332Z,79.50
2018-10-07T01:55:33.706Z,77.60
2018-10-07T01:59:37.206Z,79.70
2018-10-07T02:03:40.613Z,76.10
2018-10-07T02:07:43.999Z,77.90
2018-10-07T02:11:47.366Z,76.20
2018-10-07T02:15:50.771Z,79.00
2018-10-07T02:19:54.144Z,80.00
2018-10-07T02:23:57.533Z,81.00
2018-10-07T02:28:00.948Z,82.00
2018-10-07T02:32:04.317Z,78.70
2018-10-07T02:36:07.697Z,81.10
2018-10-07T02:40:11.164Z,81.40
2018-10-07T02:44:14.513Z,80.10
2018-10-07T02:48:17.908Z,79.70
2018-10-07T02:52:26.760Z,78.20
2018-10-07T02:56:30.167Z,81.30
2018-10-07T03:00:33.619Z,79.50
2018-10-07T03:04:37.021Z,79.00
2018-10-07T03:08:40.441Z,81.00
2018-10-07T03:12:43.812Z,80.30
2018-10-07T03:16:47.205Z,81.10
2018-10-07T03:20:50.574Z,80.30
2018-10-07T03:24:53.954Z,80.60
2018-10-07T03:28:57.632Z,80.90
2018-10-07T03:33:00.968Z,82.70
2018-10-07T03:37:04.338Z,79.70
2018-10-07T03:41:07.820Z,80.80
2018-10-07T03:45:11.203Z,79.60
2018-10-07T03:49:14.560Z,81.30
2018-10-07T03:53:18.136Z,80.80
2018-10-07T03:57:21.540Z,81.10
2018-10-07T04:01:24.997Z,79.50
2018-10-07T04:05:28.365Z,82.00
2018-10-07T04:09:31.730Z,80.60
2018-10-07T04:13:35.091Z,78.50
2018-10-07T04:17:38.478Z,79.40
2018-10-07T04:21:44.822Z,81.60
2018-10-07T04:25:48.196Z,79.70
2018-10-07T04:29:51.570Z,78.90
2018-10-07T04:33:54.912Z,77.80
2018-10-07T04:37:58.278Z,79.90
2018-10-07T04:42:01.681Z,79.10
2018-10-07T04:46:05.313Z,78.60
2018-10-07T04:50:08.920Z,78.30
2018-10-07T04:54:12.287Z,77.90
2018-10-07T04:58:15.677Z,80.50
2018-10-07T05:02:19.058Z,79.30
2018-10-07T05:06:24.548Z,79.60
2018-10-07T05:10:45.889Z,78.30
2018-10-07T05:14:49.300Z,78.00
2018-10-07T05:18:52.698Z,81.00
2018-10-07T05:22:56.095Z,79.10
2018-10-07T05:26:59.472Z,76.30
2018-10-07T05:31:02.936Z,77.50
2018-10-07T05:35:06.320Z,77.90
2018-10-07T05:39:10.987Z,78.20
2018-10-07T05:43:14.364Z,79.90
2018-10-07T05:47:17.735Z,78.90
2018-10-07T05:51:21.903Z,79.60
2018-10-07T05:55:25.295Z,78.90
2018-10-07T05:59:29.573Z,78.40
2018-10-07T06:03:51.096Z,77.40
2018-10-07T06:07:54.480Z,77.40
2018-10-07T06:11:58.066Z,76.70
2018-10-07T06:16:01.501Z,79.50
2018-10-07T06:20:04.963Z,81.00
2018-10-07T06:24:08.348Z,81.90
2018-10-07T06:28:11.749Z,77.40
2018-10-07T06:32:15.248Z,78.60
2018-10-07T06:36:18.617Z,78.20
2018-10-07T06:40:22.114Z,79.30
2018-10-07T06:44:25.497Z,77.30
2018-10-07T06:48:28.847Z,77.30
2018-10-07T06:52:33.363Z,76.50
2018-10-07T06:56:36.724Z,77.20
2018-10-07T07:00:40.144Z,78.50
2018-10-07T07:04:44.196Z,77.40
2018-10-07T07:08:47.641Z,75.40
2018-10-07T07:12:51.018Z,76.70
2018-10-07T07:16:54.418Z,76.00
2018-10-07T07:20:57.766Z,75.60
2018-10-07T07:25:01.140Z,75.30
2018-10-07T07:29:04.505Z,75.60
2018-10-07T07:33:07.873Z,74.10
2018-10-07T07:37:11.231Z,73.70
2018-10-07T07:41:14.584Z,73.30
2018-10-07T07:45:17.935Z,72.80
2018-10-07T07:49:21.406Z,70.90
2018-10-07T07:53:24.764Z,70.70
2018-10-07T07:57:28.133Z,69.90
2018-10-07T08:01:31.471Z,69.90
2018-10-07T08:05:34.882Z,69.20
2018-10-07T08:09:38.264Z,67.90
2018-10-07T08:13:41.623Z,66.10
2018-10-07T08:17:46.350Z,67.60
2018-10-07T08:21:49.708Z,66.00
2018-10-07T08:25:53.056Z,66.80
2018-10-07T08:29:56.439Z,65.20
2018-10-07T08:38:02.888Z,62.00
2018-10-07T08:42:06.288Z,62.40
2018-10-07T08:46:09.658Z,59.60
2018-10-07T08:50:13.020Z,60.80
2018-10-07T08:54:16.372Z,62.20
2018-10-07T08:58:19.779Z,61.20
2018-10-07T09:02:23.165Z,61.50
2018-10-07T09:06:27.274Z,60.00
2018-10-07T09:10:30.703Z,59.90
2018-10-07T09:14:34.180Z,59.00
2018-10-07T09:18:37.520Z,58.60
2018-10-07T09:22:40.889Z,58.90
2018-10-07T09:26:44.273Z,58.10
2018-10-07T09:30:47.685Z,58.00
2018-10-07T09:34:51.265Z,70.40
2018-10-07T09:42:57.737Z,56.10
2018-10-07T09:47:01.146Z,56.60
2018-10-07T09:51:05.440Z,55.70
2018-10-07T09:55:10.045Z,55.90
2018-10-07T09:59:14.071Z,56.60
2018-10-07T10:03:17.837Z,52.60
2018-10-07T10:07:22.087Z,54.70
2018-10-07T10:11:25.628Z,54.10
2018-10-07T10:15:28.946Z,52.90
2018-10-07T10:19:51.224Z,52.30
2018-10-07T10:24:06.764Z,53.80
2018-10-07T10:28:17.538Z,53.20
2018-10-07T10:32:27.712Z,52.40
2018-10-07T10:36:37.645Z,50.90
2018-10-07T10:40:52.548Z,53.50
2018-10-07T10:44:59.541Z,52.20
2018-10-07T10:49:16.524Z,52.40
2018-10-07T10:53:42.014Z,49.90
2018-10-07T10:57:47.770Z,52.50
2018-10-07T11:02:01.466Z,49.60
2018-10-07T11:06:15.368Z,52.30
2018-10-07T11:10:52.091Z,50.90
2018-10-07T11:15:00.709Z,51.80
2018-10-07T11:19:17.120Z,51.50
2018-10-07T11:28:11.216Z,78.30
2018-10-07T11:32:21.203Z,75.70
2018-10-07T11:36:35.572Z,66.70
2018-10-07T11:40:53.847Z,63.90
2018-10-07T11:45:31.482Z,62.00
2018-10-07T11:53:44.761Z,49.80
2018-10-07T12:18:04.831Z,50.80
2018-10-07T12:22:08.671Z,49.00
2018-10-07T12:42:25.491Z,70.80
2018-10-07T12:46:28.866Z,49.40
2018-10-07T12:50:32.226Z,52.60
2018-10-07T12:54:35.697Z,51.60
2018-10-07T13:02:42.108Z,47.00
2018-10-07T13:06:45.490Z,51.20
2018-10-07T13:10:48.895Z,52.00
2018-10-07T13:14:52.267Z,51.40
2018-10-07T13:18:55.633Z,51.40
2018-10-07T13:22:59.001Z,53.10
2018-10-07T13:27:02.347Z,54.40
2018-10-07T13:31:05.838Z,53.20
2018-10-07T13:35:20.764Z,57.00
2018-10-07T13:39:24.137Z,56.80
2018-10-07T13:43:27.550Z,57.90
2018-10-07T13:47:30.924Z,58.40
2018-10-07T13:51:34.346Z,57.30
2018-10-07T13:55:37.706Z,56.50
2018-10-07T13:59:41.083Z,57.60
2018-10-07T14:03:44.485Z,58.90
2018-10-07T14:07:47.844Z,55.00
2018-10-07T14:11:51.219Z,55.70
2018-10-07T14:15:54.708Z,57.40
2018-10-07T14:19:58.084Z,57.10
2018-10-07T14:24:01.522Z,56.80
2018-10-07T14:28:04.851Z,56.00
2018-10-07T14:32:08.216Z,57.10
2018-10-07T14:36:11.604Z,56.30
2018-10-07T14:40:14.985Z,56.60
2018-10-07T14:44:18.358Z,57.40
2018-10-07T14:48:21.708Z,51.80
2018-10-07T14:52:25.065Z,55.90
2018-10-07T14:56:28.440Z,54.20
2018-10-07T15:00:31.804Z,55.50
2018-10-07T15:04:35.160Z,56.60
2018-10-07T15:08:38.631Z,57.40
2018-10-07T15:12:42.004Z,56.70
2018-10-07T15:16:45.399Z,54.80
2018-10-07T15:20:48.773Z,57.50
2018-10-07T15:24:52.129Z,59.10
2018-10-07T15:28:55.491Z,57.40
2018-10-07T15:32:58.859Z,58.30
2018-10-07T15:37:02.228Z,56.70
2018-10-07T15:41:05.719Z,56.20
2018-10-07T15:45:09.094Z,53.70
2018-10-07T15:49:12.485Z,53.60
2018-10-07T15:53:15.840Z,55.10
2018-10-07T15:57:19.608Z,55.10
2018-10-07T16:01:22.991Z,54.90
2018-10-07T16:05:26.348Z,56.10
2018-10-07T16:09:29.716Z,55.50
2018-10-07T16:13:33.060Z,57.30
2018-10-07T16:17:36.444Z,56.60
2018-10-07T16:21:39.801Z,59.20
2018-10-07T16:25:43.167Z,58.60
2018-10-07T16:29:46.539Z,56.20
2018-10-07T16:33:49.880Z,57.10
2018-10-07T16:37:53.247Z,58.80
2018-10-07T16:41:56.633Z,56.90
2018-10-07T16:45:59.996Z,58.20
2018-10-07T16:50:03.447Z,57.40
2018-10-07T16:54:06.859Z,60.40
2018-10-07T16:58:10.225Z,59.40
2018-10-07T17:02:13.603Z,59.20
2018-10-07T17:06:16.991Z,58.30
2018-10-07T17:10:20.364Z,59.10
2018-10-07T17:14:23.703Z,59.10
2018-10-07T17:18:27.081Z,60.20
2018-10-07T17:22:30.461Z,60.60
2018-10-07T17:26:35.181Z,59.70
2018-10-07T17:30:38.548Z,59.50
2018-10-07T17:34:41.880Z,59.40
2018-10-07T17:38:45.257Z,60.60
2018-10-07T17:42:48.692Z,60.60
2018-10-07T17:46:52.012Z,61.50
2018-10-07T17:50:55.413Z,60.90
2018-10-07T17:54:58.779Z,61.30
2018-10-07T17:59:02.129Z,62.00
2018-10-07T18:03:05.510Z,61.60
2018-10-07T18:07:08.901Z,61.50
2018-10-07T18:11:12.424Z,61.80
2018-10-07T18:15:15.804Z,61.80
2018-10-07T18:19:19.186Z,62.90
2018-10-07T18:23:22.641Z,62.40
2018-10-07T18:27:26.071Z,62.80
2018-10-07T18:31:29.464Z,63.20
2018-10-07T18:35:32.796Z,62.70
2018-10-07T18:39:36.161Z,62.70
2018-10-07T18:43:39.516Z,62.80
2018-10-07T18:47:42.881Z,63.10
2018-10-07T18:51:46.629Z,63.90
2018-10-07T18:55:50.011Z,63.70
2018-10-07T18:59:53.417Z,63.80
2018-10-07T19:03:56.811Z,63.90
2018-10-07T19:08:00.193Z,64.10
2018-10-07T19:12:03.566Z,64.60
2018-10-07T19:16:07.054Z,65.00
2018-10-07T19:20:11.465Z,64.10
2018-10-07T19:24:14.864Z,64.30
2018-10-07T19:28:18.243Z,65.50
2018-10-07T19:32:21.611Z,65.30
2018-10-07T19:36:24.960Z,65.00
2018-10-07T19:40:28.330Z,66.00
2018-10-07T19:44:31.687Z,66.50
2018-10-07T19:48:35.359Z,69.10
2018-10-07T19:52:38.763Z,66.60
2018-10-07T19:56:42.097Z,65.70
2018-10-07T20:00:45.493Z,66.70
2018-10-07T20:04:48.857Z,64.40
2018-10-07T20:08:52.253Z,65.20
2018-10-07T20:12:55.618Z,65.70
2018-10-07T20:16:58.976Z,65.00
2018-10-07T20:21:02.452Z,66.10
2018-10-07T20:25:05.876Z,66.00
2018-10-07T20:29:09.248Z,65.10
2018-10-07T20:33:12.603Z,65.80
2018-10-07T20:37:15.955Z,69.40
2018-10-07T20:41:19.338Z,67.00
2018-10-07T20:45:22.716Z,65.50
2018-10-07T20:49:26.675Z,67.20
2018-10-07T20:53:30.165Z,67.00
2018-10-07T20:57:33.679Z,66.20
2018-10-07T21:01:37.067Z,66.90
2018-10-07T21:05:40.479Z,67.90
2018-10-07T21:09:44.328Z,67.80
2018-10-07T21:13:47.784Z,66.50
2018-10-07T21:17:51.147Z,68.70
2018-10-07T21:21:54.579Z,67.40
2018-10-07T21:25:57.936Z,67.00
2018-10-07T21:30:01.309Z,68.10
2018-10-07T21:34:04.671Z,66.70
2018-10-07T21:38:08.045Z,68.10
2018-10-07T21:42:11.892Z,67.80
2018-10-07T21:46:15.241Z,68.10
2018-10-07T21:50:19.564Z,67.40
2018-10-07T21:54:22.957Z,68.60
2018-10-07T21:58:26.334Z,67.20
2018-10-07T22:02:32.255Z,69.40
2018-10-07T22:06:35.969Z,68.00
2018-10-07T22:10:39.336Z,67.40
2018-10-07T22:14:42.792Z,68.50
2018-10-07T22:18:46.459Z,71.40
2018-10-07T22:22:50.067Z,71.80
2018-10-07T22:26:53.517Z,68.50
2018-10-07T22:30:56.944Z,68.50
2018-10-07T22:35:00.296Z,68.70
2018-10-07T22:39:04.071Z,67.40
2018-10-07T22:43:06.717Z,69.60
2018-10-07T22:47:09.383Z,68.90
2018-10-07T22:51:12.037Z,74.00
2018-10-07T22:55:14.670Z,73.30
2018-10-07T22:59:17.309Z,70.30
2018-10-07T23:03:19.967Z,68.10
2018-10-07T23:07:23.150Z,70.80
2018-10-07T23:11:25.796Z,66.40
2018-10-07T23:15:28.468Z,68.80
2018-10-07T23:19:31.906Z,71.20
2018-10-07T23:23:34.534Z,66.70
2018-10-07T23:27:37.215Z,70.00
2018-10-07T23:31:39.874Z,69.80
2018-10-07T23:35:42.507Z,71.10
2018-10-07T23:39:45.181Z,68.20
2018-10-07T23:43:47.832Z,70.50
2018-10-07T23:47:50.498Z,68.60
2018-10-07T23:51:53.211Z,68.70
2018-10-07T23:55:55.800Z,69.80
2018-10-07T23:59:58.450Z,67.90
